Time;durP1;ratioP1;P1;durP2;ratioP2;P2;SDS_P1;SDS_P2;PMS_P1;PMS_P2;Temp;Humidity;BMP_temperature;BMP_pressure;BME280_temperature;BME280_humidity;BME280_pressure;Samples;Min_cycle;Max_cycle;Signal;HPM_P1;HPM_P2
2023/07/05 00:01:24;;;;;;;9.25;3.20;;;;;;;;;;5226804;28;20382;-73
2023/07/05 00:03:54;;;;;;;8.43;3.40;;;;;;;;;;5226692;28;20029;-73
2023/07/05 00:06:25;;;;;;;9.02;3.35;;;;;;;;;;5226368;28;20024;-73
2023/07/05 00:08:56;;;;;;;13.20;4.10;;;;;;;;;;5226768;28;20013;-73
2023/07/05 00:11:26;;;;;;;8.23;3.55;;;;;;;;;;5226762;28;20021;-73
2023/07/05 00:13:57;;;;;;;10.65;3.83;;;;;;;;;;5226471;28;20075;-73
2023/07/05 00:16:27;;;;;;;13.45;4.65;;;;;;;;;;5226088;28;20654;-73
2023/07/05 00:18:57;;;;;;;16.15;4.30;;;;;;;;;;5213027;28;20029;-72
2023/07/05 00:21:28;;;;;;;11.75;4.43;;;;;;;;;;5226769;28;20044;-72
2023/07/05 00:23:58;;;;;;;9.40;3.95;;;;;;;;;;5226686;28;20099;-72
2023/07/05 00:26:28;;;;;;;8.70;3.42;;;;;;;;;;5225944;28;20070;-72
2023/07/05 00:28:59;;;;;;;9.32;4.00;;;;;;;;;;5226338;28;20478;-73
2023/07/05 00:31:29;;;;;;;8.82;3.38;;;;;;;;;;5226377;28;20017;-72
2023/07/05 00:33:59;;;;;;;8.43;2.10;;;;;;;;;;5226146;28;20455;-72
2023/07/05 00:36:30;;;;;;;6.43;2.20;;;;;;;;;;5225880;28;20082;-72
2023/07/05 00:39:00;;;;;;;2.42;1.70;;;;;;;;;;5225973;28;20029;-72
2023/07/05 00:41:30;;;;;;;2.45;1.60;;;;;;;;;;5226104;28;20025;-73
2023/07/05 00:44:00;;;;;;;7.53;2.20;;;;;;;;;;5226065;28;20151;-74
2023/07/05 00:46:31;;;;;;;3.17;1.65;;;;;;;;;;5225553;28;20075;-72
2023/07/05 00:49:03;;;;;;;5.95;1.98;;;;;;;;;;5226174;28;20470;-73
2023/07/05 00:51:52;;;;;;;3.22;1.50;;;;;;;;;;5225602;28;20442;-72
2023/07/05 00:54:26;;;;;;;4.25;1.60;;;;;;;;;;5226096;28;20402;-72
2023/07/05 00:56:59;;;;;;;3.67;1.63;;;;;;;;;;5225814;28;20021;-72
2023/07/05 00:59:31;;;;;;;2.35;1.40;;;;;;;;;;5225600;28;20086;-72
2023/07/05 01:02:01;;;;;;;2.30;1.25;;;;;;;;;;5225692;28;20457;-72
2023/07/05 01:04:32;;;;;;;2.83;1.20;;;;;;;;;;5226278;28;20024;-72
2023/07/05 01:07:02;;;;;;;2.50;1.23;;;;;;;;;;5226016;28;20378;-72
2023/07/05 01:09:33;;;;;;;3.13;1.23;;;;;;;;;;5226103;28;20017;-72
2023/07/05 01:12:10;;;;;;;4.80;1.42;;;;;;;;;;5225847;28;20028;-71
2023/07/05 01:14:41;;;;;;;1.90;1.20;;;;;;;;;;5225494;28;20021;-73
2023/07/05 01:17:11;;;;;;;4.13;1.15;;;;;;;;;;5223089;28;20020;-73
2023/07/05 01:19:41;;;;;;;2.22;1.20;;;;;;;;;;5213972;28;20029;-73
2023/07/05 01:22:17;;;;;;;3.05;1.13;;;;;;;;;;5225076;28;20368;-74
2023/07/05 01:24:52;;;;;;;3.80;1.48;;;;;;;;;;5225137;28;20021;-73
2023/07/05 01:27:39;;;;;;;4.32;1.52;;;;;;;;;;5225008;28;20039;-73
2023/07/05 01:30:09;;;;;;;6.97;1.60;;;;;;;;;;5225050;28;20104;-72
2023/07/05 01:32:44;;;;;;;4.85;2.15;;;;;;;;;;5225306;28;20103;-72
2023/07/05 01:35:16;;;;;;;5.35;2.17;;;;;;;;;;5224643;28;20025;-72
2023/07/05 01:37:47;;;;;;;8.55;2.67;;;;;;;;;;5224699;28;20100;-71
2023/07/05 01:40:32;;;;;;;3.80;2.42;;;;;;;;;;5225052;28;20104;-70
2023/07/05 01:43:05;;;;;;;5.95;2.75;;;;;;;;;;5225042;28;20063;-70
2023/07/05 01:45:54;;;;;;;4.30;2.58;;;;;;;;;;5224763;28;20017;-70
2023/07/05 01:48:25;;;;;;;4.82;2.53;;;;;;;;;;5224799;28;20028;-69
2023/07/05 01:50:59;;;;;;;9.15;3.67;;;;;;;;;;5225024;28;20474;-70
2023/07/05 01:53:33;;;;;;;7.05;3.22;;;;;;;;;;5224946;28;20021;-70
2023/07/05 01:56:07;;;;;;;8.57;3.53;;;;;;;;;;5224156;28;20115;-70
2023/07/05 01:58:40;;;;;;;8.73;4.13;;;;;;;;;;5224936;28;20025;-69
2023/07/05 02:01:13;;;;;;;5.68;3.13;;;;;;;;;;5224737;28;20094;-70
2023/07/05 02:03:46;;;;;;;5.55;3.38;;;;;;;;;;5224931;28;20078;-70
2023/07/05 02:06:17;;;;;;;5.82;3.38;;;;;;;;;;5223848;28;20047;-70
2023/07/05 02:08:49;;;;;;;5.72;3.47;;;;;;;;;;5224386;28;20053;-70
2023/07/05 02:11:20;;;;;;;10.52;4.20;;;;;;;;;;5224804;28;20545;-69
2023/07/05 02:13:50;;;;;;;9.75;3.55;;;;;;;;;;5224720;28;20021;-69
2023/07/05 02:16:20;;;;;;;12.25;3.42;;;;;;;;;;5224134;28;20028;-69
2023/07/05 02:18:51;;;;;;;9.40;4.00;;;;;;;;;;5210971;28;20049;-69
2023/07/05 02:21:21;;;;;;;10.38;3.88;;;;;;;;;;5224162;28;20116;-69
2023/07/05 02:23:51;;;;;;;11.05;3.85;;;;;;;;;;5224248;28;20057;-70
2023/07/05 02:26:21;;;;;;;12.65;4.13;;;;;;;;;;5224212;28;20021;-70
2023/07/05 02:28:52;;;;;;;7.63;2.97;;;;;;;;;;5224325;28;20021;-70
2023/07/05 02:31:22;;;;;;;9.45;3.70;;;;;;;;;;5224402;28;20744;-70
2023/07/05 02:33:52;;;;;;;11.18;4.18;;;;;;;;;;5224038;28;20116;-70
2023/07/05 02:36:23;;;;;;;6.82;3.53;;;;;;;;;;5224018;28;20463;-70
2023/07/05 02:38:53;;;;;;;12.50;3.85;;;;;;;;;;5210912;28;20139;-69
2023/07/05 02:41:24;;;;;;;12.05;4.18;;;;;;;;;;5224243;28;20025;-69
2023/07/05 02:43:54;;;;;;;8.52;3.88;;;;;;;;;;5224362;28;20028;-69
2023/07/05 02:46:26;;;;;;;12.18;4.13;;;;;;;;;;5223475;28;20029;-70
2023/07/05 02:48:57;;;;;;;8.57;3.63;;;;;;;;;;5224530;28;20013;-70
2023/07/05 02:51:27;;;;;;;10.45;4.15;;;;;;;;;;5224535;28;20025;-70
2023/07/05 02:53:58;;;;;;;12.85;4.05;;;;;;;;;;5224338;28;20028;-70
2023/07/05 02:56:28;;;;;;;11.05;3.65;;;;;;;;;;5223639;28;20016;-70
2023/07/05 02:58:58;;;;;;;10.95;4.75;;;;;;;;;;5224279;28;20064;-70
2023/07/05 03:01:28;;;;;;;13.82;4.47;;;;;;;;;;5224012;28;20040;-70
2023/07/05 03:03:59;;;;;;;10.43;4.65;;;;;;;;;;5224309;28;20013;-70
2023/07/05 03:06:29;;;;;;;8.88;4.20;;;;;;;;;;5223976;28;20025;-70
2023/07/05 03:08:59;;;;;;;11.02;4.55;;;;;;;;;;5223616;28;20013;-70
2023/07/05 03:11:30;;;;;;;12.02;4.22;;;;;;;;;;5224023;28;20025;-70
2023/07/05 03:14:00;;;;;;;11.23;4.50;;;;;;;;;;5224028;28;20025;-70
2023/07/05 03:16:30;;;;;;;12.52;4.30;;;;;;;;;;5223489;28;20017;-70
2023/07/05 03:19:01;;;;;;;9.95;4.55;;;;;;;;;;5227575;28;20025;-70
2023/07/05 03:21:31;;;;;;;13.68;4.88;;;;;;;;;;5227445;28;20041;-70
2023/07/05 03:24:01;;;;;;;10.38;4.45;;;;;;;;;;5227524;28;20122;-70
2023/07/05 03:26:31;;;;;;;9.65;4.30;;;;;;;;;;5227326;28;20490;-70
2023/07/05 03:29:02;;;;;;;13.70;4.22;;;;;;;;;;5227545;28;20048;-69
2023/07/05 03:31:33;;;;;;;10.90;4.10;;;;;;;;;;5227524;28;20071;-70
2023/07/05 03:34:03;;;;;;;9.15;4.40;;;;;;;;;;5227339;28;20029;-70
2023/07/05 03:36:33;;;;;;;16.08;4.55;;;;;;;;;;5227039;28;20028;-70
2023/07/05 03:39:04;;;;;;;10.80;4.45;;;;;;;;;;5227875;28;20524;-70
2023/07/05 03:41:35;;;;;;;10.00;4.38;;;;;;;;;;5227370;28;20033;-70
2023/07/05 03:44:05;;;;;;;11.73;4.75;;;;;;;;;;5227465;28;20501;-70
2023/07/05 03:46:36;;;;;;;14.98;5.00;;;;;;;;;;5226378;28;20025;-70
2023/07/05 03:49:06;;;;;;;9.18;4.72;;;;;;;;;;5227177;28;20428;-70
2023/07/05 03:51:36;;;;;;;13.32;4.93;;;;;;;;;;5227364;28;20096;-69
2023/07/05 03:54:07;;;;;;;12.48;4.40;;;;;;;;;;5227284;28;20029;-70
2023/07/05 03:56:37;;;;;;;10.55;4.72;;;;;;;;;;5226669;28;20031;-69
2023/07/05 03:59:09;;;;;;;10.90;4.65;;;;;;;;;;5226471;28;20056;-70
2023/07/05 04:01:39;;;;;;;15.52;4.85;;;;;;;;;;5226949;28;20036;-69
2023/07/05 04:04:09;;;;;;;11.52;4.18;;;;;;;;;;5227255;28;20092;-70
2023/07/05 04:06:40;;;;;;;17.15;4.10;;;;;;;;;;5226701;28;20017;-70
2023/07/05 04:09:10;;;;;;;9.40;4.40;;;;;;;;;;5226854;28;20013;-70
2023/07/05 04:11:40;;;;;;;12.85;4.22;;;;;;;;;;5226505;28;20029;-69
2023/07/05 04:14:11;;;;;;;13.00;3.90;;;;;;;;;;5226960;28;20021;-69
2023/07/05 04:16:41;;;;;;;10.68;4.40;;;;;;;;;;5226155;28;20354;-70
2023/07/05 04:19:11;;;;;;;11.18;4.55;;;;;;;;;;5213456;28;20096;-69
2023/07/05 04:21:42;;;;;;;8.95;3.85;;;;;;;;;;5226806;28;20440;-70
2023/07/05 04:24:12;;;;;;;8.98;4.22;;;;;;;;;;5226139;28;20036;-70
2023/07/05 04:26:42;;;;;;;8.68;4.30;;;;;;;;;;5226111;28;20017;-70
2023/07/05 04:29:13;;;;;;;10.43;4.30;;;;;;;;;;5225937;28;20017;-70
2023/07/05 04:31:43;;;;;;;18.35;4.38;;;;;;;;;;5226331;28;20020;-69
2023/07/05 04:34:13;;;;;;;13.95;4.25;;;;;;;;;;5226626;28;20075;-70
2023/07/05 04:36:44;;;;;;;12.05;4.25;;;;;;;;;;5225450;28;20028;-70
2023/07/05 04:39:14;;;;;;;9.32;3.55;;;;;;;;;;5226510;28;20029;-70
2023/07/05 04:41:44;;;;;;;10.70;3.92;;;;;;;;;;5226202;28;20506;-70
2023/07/05 04:44:14;;;;;;;15.57;4.18;;;;;;;;;;5226391;28;20032;-70
2023/07/05 04:46:45;;;;;;;10.68;3.75;;;;;;;;;;5225630;28;20041;-69
2023/07/05 04:49:15;;;;;;;10.80;3.75;;;;;;;;;;5226190;28;20062;-70
2023/07/05 04:51:45;;;;;;;9.20;4.20;;;;;;;;;;5226094;28;20386;-70
2023/07/05 04:54:17;;;;;;;10.95;3.28;;;;;;;;;;5226225;28;20130;-70
2023/07/05 04:56:47;;;;;;;8.85;3.63;;;;;;;;;;5225452;28;20440;-70
2023/07/05 04:59:19;;;;;;;7.28;3.17;;;;;;;;;;5225664;28;20021;-69
2023/07/05 05:01:49;;;;;;;10.90;3.13;;;;;;;;;;5225774;28;20041;-70
2023/07/05 05:04:20;;;;;;;8.90;3.40;;;;;;;;;;5225653;28;20085;-70
2023/07/05 05:06:50;;;;;;;11.48;2.85;;;;;;;;;;5225190;28;20017;-69
2023/07/05 05:09:20;;;;;;;7.05;2.92;;;;;;;;;;5225649;28;20053;-70
2023/07/05 05:11:51;;;;;;;9.48;3.53;;;;;;;;;;5225354;28;20029;-69
2023/07/05 05:14:21;;;;;;;13.13;4.05;;;;;;;;;;5225644;28;20075;-69
2023/07/05 05:16:51;;;;;;;7.97;3.17;;;;;;;;;;5224806;28;20036;-70
2023/07/05 05:19:22;;;;;;;16.35;4.15;;;;;;;;;;5212494;28;20029;-70
2023/07/05 05:21:52;;;;;;;12.20;3.15;;;;;;;;;;5225263;28;20055;-70
2023/07/05 05:24:22;;;;;;;13.20;3.85;;;;;;;;;;5225124;28;20021;-70
2023/07/05 05:26:53;;;;;;;13.82;3.58;;;;;;;;;;5224846;28;20050;-70
2023/07/05 05:29:24;;;;;;;6.97;2.63;;;;;;;;;;5225468;28;20021;-70
2023/07/05 05:31:54;;;;;;;11.48;3.58;;;;;;;;;;5225173;28;20024;-70
2023/07/05 05:34:25;;;;;;;13.60;3.17;;;;;;;;;;5225372;28;20087;-70
2023/07/05 05:36:55;;;;;;;10.43;2.92;;;;;;;;;;5224298;28;20021;-70
2023/07/05 05:39:27;;;;;;;7.30;2.88;;;;;;;;;;5225677;28;20025;-70
2023/07/05 05:41:57;;;;;;;10.45;2.75;;;;;;;;;;5224237;28;20027;-70
2023/07/05 05:44:27;;;;;;;11.73;2.45;;;;;;;;;;5224996;28;20024;-69
2023/07/05 05:46:58;;;;;;;10.82;3.00;;;;;;;;;;5224935;28;20079;-70
2023/07/05 05:49:28;;;;;;;10.90;2.78;;;;;;;;;;5224656;28;20059;-70
2023/07/05 05:51:58;;;;;;;6.32;2.35;;;;;;;;;;5224961;28;20021;-70
2023/07/05 05:54:28;;;;;;;5.88;2.35;;;;;;;;;;5224840;28;20390;-70
2023/07/05 05:56:59;;;;;;;6.72;2.40;;;;;;;;;;5224405;28;20036;-70
2023/07/05 05:59:29;;;;;;;8.25;2.50;;;;;;;;;;5224604;28;20078;-69
2023/07/05 06:02:00;;;;;;;4.55;2.28;;;;;;;;;;5224287;28;20040;-70
2023/07/05 06:04:30;;;;;;;6.07;2.42;;;;;;;;;;5224779;28;20028;-70
2023/07/05 06:07:00;;;;;;;7.85;2.00;;;;;;;;;;5224534;28;20045;-70
2023/07/05 06:09:36;;;;;;;9.48;1.85;;;;;;;;;;5224611;28;20360;-70
2023/07/05 06:12:06;;;;;;;9.90;2.40;;;;;;;;;;5224764;28;20017;-70
2023/07/05 06:14:37;;;;;;;19.08;2.70;;;;;;;;;;5224397;28;20040;-70
2023/07/05 06:17:07;;;;;;;6.53;1.90;;;;;;;;;;5222597;28;20028;-70
2023/07/05 06:19:38;;;;;;;2.92;1.70;;;;;;;;;;5212532;28;20427;-70
2023/07/05 06:22:08;;;;;;;7.15;1.92;;;;;;;;;;5224284;28;20021;-69
2023/07/05 06:24:42;;;;;;;5.85;2.03;;;;;;;;;;5224367;28;20032;-70
2023/07/05 06:27:12;;;;;;;6.78;2.17;;;;;;;;;;5223604;28;20024;-70
2023/07/05 06:29:43;;;;;;;8.18;2.20;;;;;;;;;;5224392;28;20490;-70
2023/07/05 06:32:13;;;;;;;5.45;1.95;;;;;;;;;;5224406;28;20021;-70
2023/07/05 06:34:44;;;;;;;5.45;1.98;;;;;;;;;;5224523;28;20066;-70
2023/07/05 06:37:15;;;;;;;8.10;2.03;;;;;;;;;;5222518;28;20141;-70
2023/07/05 06:39:45;;;;;;;7.03;2.00;;;;;;;;;;5222940;28;20218;-70
2023/07/05 06:42:15;;;;;;;6.28;2.22;;;;;;;;;;5224189;28;20399;-70
2023/07/05 06:44:46;;;;;;;6.10;2.20;;;;;;;;;;5224095;28;20025;-70
2023/07/05 06:47:16;;;;;;;6.40;2.63;;;;;;;;;;5223936;28;20021;-70
2023/07/05 06:49:46;;;;;;;3.35;1.52;;;;;;;;;;5223599;28;20048;-70
2023/07/05 06:52:16;;;;;;;8.32;2.00;;;;;;;;;;5225963;28;20490;-70
2023/07/05 06:54:47;;;;;;;7.07;2.45;;;;;;;;;;5228299;28;20021;-70
2023/07/05 06:57:17;;;;;;;6.68;2.35;;;;;;;;;;5227842;28;20487;-70
2023/07/05 06:59:47;;;;;;;9.40;2.10;;;;;;;;;;5227865;28;20025;-70
2023/07/05 07:02:18;;;;;;;8.40;2.08;;;;;;;;;;5227718;28;20036;-72
2023/07/05 07:04:48;;;;;;;7.05;2.15;;;;;;;;;;5227894;28;20024;-72
2023/07/05 07:07:19;;;;;;;6.10;1.75;;;;;;;;;;5227525;28;20021;-72
2023/07/05 07:09:49;;;;;;;7.35;2.10;;;;;;;;;;5228193;28;20020;-72
2023/07/05 07:12:20;;;;;;;5.55;1.77;;;;;;;;;;5227812;28;20101;-72
2023/07/05 07:14:50;;;;;;;5.63;2.08;;;;;;;;;;5227655;28;20028;-72
2023/07/05 07:17:20;;;;;;;7.38;1.92;;;;;;;;;;5224007;28;20075;-72
2023/07/05 07:19:51;;;;;;;7.30;2.30;;;;;;;;;;5217512;28;20021;-71
2023/07/05 07:22:22;;;;;;;8.10;2.08;;;;;;;;;;5227662;28;20444;-72
2023/07/05 07:24:52;;;;;;;9.30;2.00;;;;;;;;;;5227669;28;20029;-72
2023/07/05 07:27:23;;;;;;;7.07;1.83;;;;;;;;;;5226910;28;20017;-72
2023/07/05 07:29:53;;;;;;;14.13;2.03;;;;;;;;;;5227698;28;20032;-72
2023/07/05 07:32:24;;;;;;;7.32;1.58;;;;;;;;;;5227657;28;20028;-72
2023/07/05 07:34:54;;;;;;;4.95;1.70;;;;;;;;;;5227477;28;20055;-72
2023/07/05 07:37:25;;;;;;;7.55;1.40;;;;;;;;;;5227141;28;20414;-72
2023/07/05 07:39:55;;;;;;;7.20;2.10;;;;;;;;;;5227054;28;20032;-72
2023/07/05 07:42:25;;;;;;;6.20;1.52;;;;;;;;;;5227493;28;20021;-72
2023/07/05 07:44:56;;;;;;;9.20;1.88;;;;;;;;;;5227241;28;20020;-73
2023/07/05 07:47:26;;;;;;;11.55;1.88;;;;;;;;;;5226959;28;20013;-72
2023/07/05 07:49:57;;;;;;;4.32;1.20;;;;;;;;;;5227247;28;20021;-71
2023/07/05 07:52:27;;;;;;;8.50;1.75;;;;;;;;;;5227164;28;20104;-71
2023/07/05 07:54:58;;;;;;;11.15;2.55;;;;;;;;;;5227141;28;20029;-72
2023/07/05 07:57:28;;;;;;;10.13;1.55;;;;;;;;;;5226867;28;20056;-72
2023/07/05 07:59:58;;;;;;;8.52;2.17;;;;;;;;;;5227285;28;20029;-72
2023/07/05 08:02:29;;;;;;;3.90;1.55;;;;;;;;;;5226866;28;20573;-71
2023/07/05 08:04:59;;;;;;;8.77;1.63;;;;;;;;;;5225564;28;20474;-71
2023/07/05 08:07:30;;;;;;;6.13;1.80;;;;;;;;;;5226545;28;20100;-72
2023/07/05 08:10:01;;;;;;;6.10;2.05;;;;;;;;;;5226988;28;20025;-71
2023/07/05 08:12:31;;;;;;;9.00;2.38;;;;;;;;;;5226989;28;20037;-72
2023/07/05 08:15:02;;;;;;;12.52;2.20;;;;;;;;;;5226888;28;20031;-71
2023/07/05 08:17:33;;;;;;;7.05;2.15;;;;;;;;;;5221861;28;20028;-71
2023/07/05 08:20:03;;;;;;;7.63;1.67;;;;;;;;;;5218324;28;20009;-71
2023/07/05 08:22:34;;;;;;;11.50;1.73;;;;;;;;;;5226525;28;20087;-71
2023/07/05 08:25:04;;;;;;;8.60;1.67;;;;;;;;;;5226506;28;20098;-71
2023/07/05 08:27:34;;;;;;;14.45;2.25;;;;;;;;;;5226464;28;20021;-72
2023/07/05 08:30:05;;;;;;;10.55;1.58;;;;;;;;;;5224938;28;20442;-72
2023/07/05 08:32:35;;;;;;;11.23;1.90;;;;;;;;;;5226768;28;20017;-72
2023/07/05 08:35:06;;;;;;;7.97;2.05;;;;;;;;;;5226418;28;20032;-72
2023/07/05 08:37:36;;;;;;;7.53;1.90;;;;;;;;;;5226224;28;20036;-72
2023/07/05 08:40:08;;;;;;;9.68;2.20;;;;;;;;;;5226462;28;20527;-72
2023/07/05 08:42:42;;;;;;;13.93;2.25;;;;;;;;;;5226203;28;20032;-72
2023/07/05 08:45:17;;;;;;;7.68;2.38;;;;;;;;;;5226130;28;20083;-72
2023/07/05 08:47:47;;;;;;;7.93;1.65;;;;;;;;;;5225821;28;20483;-71
2023/07/05 08:50:36;;;;;;;9.05;1.70;;;;;;;;;;5226157;28;20086;-72
2023/07/05 08:53:25;;;;;;;9.15;1.60;;;;;;;;;;5225884;28;20052;-72
2023/07/05 08:56:00;;;;;;;7.13;1.48;;;;;;;;;;5225542;28;20086;-72
2023/07/05 08:58:48;;;;;;;6.57;1.70;;;;;;;;;;5226450;28;20032;-72
2023/07/05 09:01:22;;;;;;;10.77;1.67;;;;;;;;;;5225494;28;20040;-72
2023/07/05 09:03:53;;;;;;;5.55;1.65;;;;;;;;;;5225939;28;20017;-72
2023/07/05 09:06:25;;;;;;;6.03;1.77;;;;;;;;;;5225410;28;20071;-72
2023/07/05 09:08:55;;;;;;;9.05;2.17;;;;;;;;;;5225645;28;20013;-72
2023/07/05 09:11:41;;;;;;;7.93;1.77;;;;;;;;;;5225930;28;20021;-72
2023/07/05 09:14:28;;;;;;;11.45;2.38;;;;;;;;;;5225604;28;20267;-72
2023/07/05 09:17:01;;;;;;;4.78;1.55;;;;;;;;;;5224800;28;20028;-72
2023/07/05 09:19:38;;;;;;;6.60;1.33;;;;;;;;;;5225618;28;20021;-72
2023/07/05 09:22:11;;;;;;;5.97;1.50;;;;;;;;;;5224911;28;20036;-72
2023/07/05 09:24:41;;;;;;;6.43;1.75;;;;;;;;;;5225346;28;20024;-72
2023/07/05 09:27:26;;;;;;;10.13;1.58;;;;;;;;;;5225053;28;20024;-72
2023/07/05 09:29:59;;;;;;;13.07;1.80;;;;;;;;;;5225433;28;20021;-73
2023/07/05 09:32:32;;;;;;;8.70;1.70;;;;;;;;;;5225477;28;20013;-72
2023/07/05 09:35:03;;;;;;;6.30;1.33;;;;;;;;;;5225152;28;20023;-72
2023/07/05 09:37:35;;;;;;;5.43;1.50;;;;;;;;;;5224893;28;20021;-72
2023/07/05 09:40:23;;;;;;;3.88;1.52;;;;;;;;;;5225006;28;20020;-72
2023/07/05 09:43:06;;;;;;;5.10;1.40;;;;;;;;;;5224714;28;20025;-72
2023/07/05 09:45:36;;;;;;;6.32;1.20;;;;;;;;;;5224975;28;20025;-73
2023/07/05 09:48:09;;;;;;;4.38;1.33;;;;;;;;;;5224726;28;20501;-72
2023/07/05 09:50:45;;;;;;;11.13;1.58;;;;;;;;;;5224896;28;20013;-72
2023/07/05 09:53:31;;;;;;;9.40;1.77;;;;;;;;;;5224663;28;20089;-73
2023/07/05 09:56:17;;;;;;;8.57;1.35;;;;;;;;;;5224374;28;20367;-72
2023/07/05 09:58:48;;;;;;;5.15;1.50;;;;;;;;;;5225157;28;20021;-73
2023/07/05 10:01:21;;;;;;;3.53;1.30;;;;;;;;;;5224619;28;20028;-73
2023/07/05 10:03:54;;;;;;;10.77;1.73;;;;;;;;;;5225009;28;20025;-73
2023/07/05 10:06:25;;;;;;;3.00;1.02;;;;;;;;;;5224304;28;20074;-72
2023/07/05 10:08:56;;;;;;;6.97;1.52;;;;;;;;;;5224902;28;20021;-73
2023/07/05 10:11:33;;;;;;;7.22;1.20;;;;;;;;;;5224859;28;20067;-73
2023/07/05 10:14:20;;;;;;;8.63;1.20;;;;;;;;;;5224247;28;20025;-73
2023/07/05 10:16:52;;;;;;;5.15;1.48;;;;;;;;;;5224027;28;20096;-73
2023/07/05 10:19:38;;;;;;;8.25;2.05;;;;;;;;;;5211326;28;20475;-73
2023/07/05 10:22:26;;;;;;;5.25;1.38;;;;;;;;;;5224595;28;20554;-73
2023/07/05 10:24:57;;;;;;;5.53;1.38;;;;;;;;;;5224406;28;20036;-72
2023/07/05 10:27:44;;;;;;;4.22;1.42;;;;;;;;;;5223549;28;20096;-73
2023/07/05 10:30:15;;;;;;;5.47;1.30;;;;;;;;;;5224836;28;20032;-73
2023/07/05 10:35:33;;;;;;;10.15;1.80;;;;;;;;;;5224401;28;20095;-73
2023/07/05 10:38:17;;;;;;;12.15;2.40;;;;;;;;;;5223869;28;20104;-73
2023/07/05 10:40:49;;;;;;;8.77;1.65;;;;;;;;;;5224431;28;20009;-73
2023/07/05 10:43:19;;;;;;;8.32;1.70;;;;;;;;;;5223937;28;20021;-72
2023/07/05 10:45:49;;;;;;;10.65;1.80;;;;;;;;;;5224202;28;20017;-72
2023/07/05 10:48:40;;;;;;;5.72;1.88;;;;;;;;;;5224406;28;20024;-72
2023/07/05 10:51:25;;;;;;;15.25;2.47;;;;;;;;;;5224258;28;20023;-72
2023/07/05 10:54:00;;;;;;;9.57;1.70;;;;;;;;;;5224269;28;20479;-73
2023/07/05 10:56:32;;;;;;;5.20;1.35;;;;;;;;;;5223906;28;20074;-73
2023/07/05 10:59:12;;;;;;;11.65;2.22;;;;;;;;;;5224308;28;20544;-73
2023/07/05 11:02:01;;;;;;;6.93;1.55;;;;;;;;;;5211176;28;20056;-73
2023/07/05 11:04:33;;;;;;;7.22;1.73;;;;;;;;;;5223947;28;20104;-73
2023/07/05 11:07:10;;;;;;;6.93;1.90;;;;;;;;;;5223758;28;20013;-73
2023/07/05 11:09:41;;;;;;;10.27;1.92;;;;;;;;;;5224109;28;20108;-73
2023/07/05 11:12:28;;;;;;;8.48;1.95;;;;;;;;;;5224530;28;20120;-73
2023/07/05 11:14:58;;;;;;;6.30;1.90;;;;;;;;;;5224166;28;20029;-73
2023/07/05 11:17:33;;;;;;;5.15;1.55;;;;;;;;;;5223488;28;20062;-72
2023/07/05 11:20:23;;;;;;;7.03;1.95;;;;;;;;;;5224163;28;20474;-73
2023/07/05 11:22:53;;;;;;;6.78;1.90;;;;;;;;;;5223671;28;20029;-73
2023/07/05 11:25:43;;;;;;;2.75;1.50;;;;;;;;;;5223672;28;20094;-72
2023/07/05 11:28:33;;;;;;;4.68;1.55;;;;;;;;;;5223851;28;20348;-73
2023/07/05 11:31:04;;;;;;;5.93;1.60;;;;;;;;;;5223533;28;20022;-73
2023/07/05 11:33:35;;;;;;;14.32;1.88;;;;;;;;;;5224015;28;20032;-72
2023/07/05 11:36:24;;;;;;;9.50;1.92;;;;;;;;;;5223533;28;20017;-73
2023/07/05 11:38:55;;;;;;;9.10;1.58;;;;;;;;;;5224319;28;20024;-73
2023/07/05 11:41:27;;;;;;;11.77;2.53;;;;;;;;;;5227408;28;20475;-73
2023/07/05 11:44:00;;;;;;;6.88;1.90;;;;;;;;;;5228201;28;20024;-73
2023/07/05 11:46:48;;;;;;;6.25;2.13;;;;;;;;;;5227246;28;20021;-73
2023/07/05 11:49:19;;;;;;;6.43;2.08;;;;;;;;;;5227157;28;20025;-73
2023/07/05 11:51:51;;;;;;;5.78;1.95;;;;;;;;;;5227108;28;20022;-73
2023/07/05 11:54:23;;;;;;;5.25;1.70;;;;;;;;;;5227297;28;20360;-74
2023/07/05 11:56:54;;;;;;;6.57;2.00;;;;;;;;;;5226890;28;20104;-73
2023/07/05 11:59:25;;;;;;;5.97;1.85;;;;;;;;;;5227158;28;20025;-73
2023/07/05 12:01:56;;;;;;;8.38;1.83;;;;;;;;;;5227045;28;20039;-73
2023/07/05 12:04:27;;;;;;;8.55;2.03;;;;;;;;;;5226556;28;20025;-73
2023/07/05 12:06:57;;;;;;;5.55;1.50;;;;;;;;;;5226781;28;20075;-73
2023/07/05 12:09:34;;;;;;;9.20;1.90;;;;;;;;;;5226863;28;20032;-73
2023/07/05 12:12:05;;;;;;;7.40;1.80;;;;;;;;;;5225964;28;20096;-73
2023/07/05 12:14:36;;;;;;;7.18;2.00;;;;;;;;;;5226811;28;20021;-73
2023/07/05 12:17:26;;;;;;;5.30;1.90;;;;;;;;;;5226128;28;20071;-73
2023/07/05 12:19:57;;;;;;;4.75;1.77;;;;;;;;;;5226614;28;20029;-73
2023/07/05 12:22:28;;;;;;;7.97;2.17;;;;;;;;;;5226708;28;20031;-73
2023/07/05 12:24:58;;;;;;;5.70;1.65;;;;;;;;;;5226786;28;20368;-73
2023/07/05 12:27:29;;;;;;;5.55;1.60;;;;;;;;;;5225972;28;20433;-73
2023/07/05 12:30:03;;;;;;;9.45;2.25;;;;;;;;;;5227326;28;20398;-74
2023/07/05 12:32:35;;;;;;;5.45;2.17;;;;;;;;;;5227486;28;20023;-72
2023/07/05 12:35:06;;;;;;;7.20;1.67;;;;;;;;;;5226852;28;20024;-73
2023/07/05 12:37:36;;;;;;;6.13;1.77;;;;;;;;;;5226173;28;20522;-73
2023/07/05 12:40:24;;;;;;;4.60;2.03;;;;;;;;;;5226131;28;20028;-73
2023/07/05 12:42:56;;;;;;;6.45;1.80;;;;;;;;;;5226530;28;20387;-73
2023/07/05 12:45:29;;;;;;;7.63;2.05;;;;;;;;;;5226101;28;20074;-73
2023/07/05 12:48:18;;;;;;;6.80;2.00;;;;;;;;;;5225834;28;20532;-72
2023/07/05 12:50:48;;;;;;;10.20;2.30;;;;;;;;;;5225594;28;20063;-73
2023/07/05 12:53:20;;;;;;;7.07;2.10;;;;;;;;;;5226340;28;20020;-73
2023/07/05 12:55:54;;;;;;;6.60;1.77;;;;;;;;;;5225902;28;20024;-73
2023/07/05 12:58:26;;;;;;;6.13;2.20;;;;;;;;;;5226128;28;20055;-73
2023/07/05 13:00:57;;;;;;;8.68;2.17;;;;;;;;;;5225469;28;20423;-74
2023/07/05 13:03:28;;;;;;;5.68;1.88;;;;;;;;;;5225970;28;20078;-73
2023/07/05 13:06:00;;;;;;;6.10;2.13;;;;;;;;;;5225376;28;20009;-73
2023/07/05 13:08:31;;;;;;;8.38;2.17;;;;;;;;;;5225934;28;20377;-74
2023/07/05 13:11:03;;;;;;;3.38;1.65;;;;;;;;;;5226109;28;20021;-73
2023/07/05 13:13:35;;;;;;;5.72;1.75;;;;;;;;;;5225750;28;20020;-73
2023/07/05 13:16:18;;;;;;;7.53;2.03;;;;;;;;;;5225212;28;20041;-73
2023/07/05 13:19:07;;;;;;;10.77;2.13;;;;;;;;;;5219879;28;20025;-73
2023/07/05 13:21:56;;;;;;;7.95;2.78;;;;;;;;;;5223767;28;20033;-73
2023/07/05 13:24:26;;;;;;;8.25;2.28;;;;;;;;;;5225542;28;20032;-73
2023/07/05 13:26:56;;;;;;;10.13;2.10;;;;;;;;;;5225082;28;20394;-72
2023/07/05 13:29:42;;;;;;;8.05;2.22;;;;;;;;;;5225598;28;20016;-73
2023/07/05 13:32:26;;;;;;;7.28;2.40;;;;;;;;;;5224861;28;20033;-72
2023/07/05 13:34:57;;;;;;;9.80;2.40;;;;;;;;;;5225137;28;20027;-73
2023/07/05 13:37:28;;;;;;;10.90;2.55;;;;;;;;;;5224866;28;20028;-72
2023/07/05 13:40:09;;;;;;;9.75;2.22;;;;;;;;;;5225096;28;20490;-73
2023/07/05 13:42:39;;;;;;;6.95;2.22;;;;;;;;;;5224880;28;20029;-73
2023/07/05 13:45:13;;;;;;;4.93;2.05;;;;;;;;;;5224896;28;20020;-73
2023/07/05 13:47:44;;;;;;;5.43;1.77;;;;;;;;;;5224894;28;20036;-73
2023/07/05 13:50:14;;;;;;;7.38;2.38;;;;;;;;;;5225076;28;20013;-73
2023/07/05 13:52:46;;;;;;;5.65;1.80;;;;;;;;;;5224629;28;20021;-73
2023/07/05 13:55:18;;;;;;;11.02;2.20;;;;;;;;;;5225066;28;20021;-73
2023/07/05 13:58:07;;;;;;;11.25;2.17;;;;;;;;;;5224345;28;20020;-73
2023/07/05 14:00:38;;;;;;;8.00;1.70;;;;;;;;;;5224827;28;20390;-74
2023/07/05 14:03:08;;;;;;;7.05;2.20;;;;;;;;;;5223555;28;20017;-73
2023/07/05 14:05:39;;;;;;;5.03;1.60;;;;;;;;;;5224496;28;20085;-72
2023/07/05 14:08:14;;;;;;;6.03;2.10;;;;;;;;;;5224459;28;20017;-73
2023/07/05 14:10:47;;;;;;;7.95;2.35;;;;;;;;;;5224725;28;20107;-73
2023/07/05 14:13:20;;;;;;;5.20;1.67;;;;;;;;;;5224568;28;20018;-73
2023/07/05 14:15:50;;;;;;;7.18;1.55;;;;;;;;;;5223838;28;20391;-73
2023/07/05 14:18:21;;;;;;;8.77;2.08;;;;;;;;;;5212839;28;20014;-73
2023/07/05 14:20:51;;;;;;;4.13;1.67;;;;;;;;;;5222461;28;20487;-72
2023/07/05 14:23:22;;;;;;;12.05;2.47;;;;;;;;;;5224454;28;20061;-72
2023/07/05 14:25:52;;;;;;;4.35;2.13;;;;;;;;;;5224140;28;20017;-72
2023/07/05 14:28:23;;;;;;;8.57;2.10;;;;;;;;;;5223894;28;20028;-73
2023/07/05 14:30:53;;;;;;;5.18;2.30;;;;;;;;;;5224583;28;20028;-73
2023/07/05 14:33:24;;;;;;;10.20;2.10;;;;;;;;;;5224331;28;20328;-73
2023/07/05 14:35:54;;;;;;;5.10;2.08;;;;;;;;;;5224094;28;20286;-73
2023/07/05 14:38:26;;;;;;;8.20;1.75;;;;;;;;;;5224172;28;20078;-73
2023/07/05 14:40:57;;;;;;;4.25;1.70;;;;;;;;;;5224050;28;20025;-73
2023/07/05 14:43:27;;;;;;;5.25;1.70;;;;;;;;;;5224135;28;20021;-72
2023/07/05 14:45:57;;;;;;;4.57;1.85;;;;;;;;;;5222820;28;20475;-73
2023/07/05 14:48:28;;;;;;;4.07;1.73;;;;;;;;;;5224042;28;20037;-73
2023/07/05 14:50:58;;;;;;;4.47;2.17;;;;;;;;;;5224380;28;20013;-73
2023/07/05 14:53:29;;;;;;;6.53;2.83;;;;;;;;;;5223856;28;20078;-73
2023/07/05 14:55:59;;;;;;;4.72;1.85;;;;;;;;;;5223786;28;20415;-73
2023/07/05 14:58:30;;;;;;;7.95;2.22;;;;;;;;;;5224129;28;20113;-73
2023/07/05 15:01:01;;;;;;;4.68;2.10;;;;;;;;;;5223974;28;20025;-73
2023/07/05 15:03:33;;;;;;;9.27;2.97;;;;;;;;;;5223797;28;20013;-73
2023/07/05 15:06:04;;;;;;;6.97;2.30;;;;;;;;;;5223726;28;20092;-72
2023/07/05 15:08:34;;;;;;;11.70;2.22;;;;;;;;;;5223979;28;20446;-73
2023/07/05 15:11:05;;;;;;;5.45;1.60;;;;;;;;;;5223949;28;20024;-73
2023/07/05 15:13:42;;;;;;;5.88;1.50;;;;;;;;;;5225779;28;20104;-73